sensor_id;sensor_type;location;lat;lon;timestamp;P1;durP1;ratioP1;P2;durP2;ratioP2
80625;SDS011;69982;51.758;5.784;2024-02-04T00:02:24;10.60;;;5.70;;
80625;SDS011;69982;51.758;5.784;2024-02-04T00:04:51;8.20;;;4.70;;
80625;SDS011;69982;51.758;5.784;2024-02-04T00:07:23;8.60;;;5.40;;
80625;SDS011;69982;51.758;5.784;2024-02-04T00:09:52;7.40;;;4.20;;
80625;SDS011;69982;51.758;5.784;2024-02-04T00:12:20;7.50;;;3.60;;
80625;SDS011;69982;51.758;5.784;2024-02-04T00:14:50;6.40;;;3.80;;
80625;SDS011;69982;51.758;5.784;2024-02-04T00:17:21;8.40;;;4.90;;
80625;SDS011;69982;51.758;5.784;2024-02-04T00:19:48;8.60;;;4.40;;
80625;SDS011;69982;51.758;5.784;2024-02-04T00:22:17;8.90;;;4.60;;
80625;SDS011;69982;51.758;5.784;2024-02-04T00:24:48;6.60;;;3.70;;
80625;SDS011;69982;51.758;5.784;2024-02-04T00:27:15;7.10;;;4.00;;
80625;SDS011;69982;51.758;5.784;2024-02-04T00:29:44;7.20;;;3.10;;
80625;SDS011;69982;51.758;5.784;2024-02-04T00:32:13;7.00;;;3.30;;
80625;SDS011;69982;51.758;5.784;2024-02-04T00:34:40;6.50;;;3.90;;
80625;SDS011;69982;51.758;5.784;2024-02-04T00:37:07;6.20;;;3.80;;
80625;SDS011;69982;51.758;5.784;2024-02-04T00:39:34;5.40;;;3.30;;
80625;SDS011;69982;51.758;5.784;2024-02-04T00:42:01;6.70;;;3.10;;
80625;SDS011;69982;51.758;5.784;2024-02-04T00:44:28;5.20;;;2.80;;
80625;SDS011;69982;51.758;5.784;2024-02-04T00:46:57;4.90;;;2.70;;
80625;SDS011;69982;51.758;5.784;2024-02-04T00:49:24;9.10;;;3.70;;
80625;SDS011;69982;51.758;5.784;2024-02-04T00:51:52;8.10;;;4.30;;
80625;SDS011;69982;51.758;5.784;2024-02-04T00:54:23;8.20;;;4.60;;
80625;SDS011;69982;51.758;5.784;2024-02-04T01:01:20;10.90;;;4.30;;
80625;SDS011;69982;51.758;5.784;2024-02-04T01:03:47;15.10;;;5.90;;
80625;SDS011;69982;51.758;5.784;2024-02-04T01:06:14;13.10;;;5.40;;
80625;SDS011;69982;51.758;5.784;2024-02-04T01:08:41;12.00;;;5.60;;
80625;SDS011;69982;51.758;5.784;2024-02-04T01:11:10;18.80;;;6.70;;
80625;SDS011;69982;51.758;5.784;2024-02-04T01:13:40;15.60;;;6.70;;
80625;SDS011;69982;51.758;5.784;2024-02-04T01:16:06;11.90;;;6.00;;
80625;SDS011;69982;51.758;5.784;2024-02-04T01:18:33;20.30;;;6.20;;
80625;SDS011;69982;51.758;5.784;2024-02-04T01:21:01;21.50;;;7.30;;
80625;SDS011;69982;51.758;5.784;2024-02-04T01:23:40;20.90;;;6.10;;
80625;SDS011;69982;51.758;5.784;2024-02-04T01:26:07;19.90;;;6.20;;
80625;SDS011;69982;51.758;5.784;2024-02-04T01:28:39;13.70;;;5.80;;
80625;SDS011;69982;51.758;5.784;2024-02-04T01:31:14;21.70;;;6.60;;
80625;SDS011;69982;51.758;5.784;2024-02-04T01:33:47;19.10;;;6.90;;
80625;SDS011;69982;51.758;5.784;2024-02-04T01:36:23;18.40;;;7.60;;
80625;SDS011;69982;51.758;5.784;2024-02-04T01:38:53;20.60;;;7.00;;
80625;SDS011;69982;51.758;5.784;2024-02-04T01:41:24;19.50;;;6.80;;
80625;SDS011;69982;51.758;5.784;2024-02-04T01:43:56;24.20;;;7.50;;
80625;SDS011;69982;51.758;5.784;2024-02-04T01:46:27;19.80;;;6.90;;
80625;SDS011;69982;51.758;5.784;2024-02-04T01:48:59;25.80;;;7.60;;
80625;SDS011;69982;51.758;5.784;2024-02-04T01:51:28;16.50;;;7.30;;
80625;SDS011;69982;51.758;5.784;2024-02-04T01:53:58;22.60;;;7.80;;
80625;SDS011;69982;51.758;5.784;2024-02-04T01:56:26;16.00;;;6.10;;
80625;SDS011;69982;51.758;5.784;2024-02-04T01:58:53;21.00;;;7.70;;
80625;SDS011;69982;51.758;5.784;2024-02-04T02:01:21;22.20;;;7.70;;
80625;SDS011;69982;51.758;5.784;2024-02-04T02:03:51;24.50;;;9.50;;
80625;SDS011;69982;51.758;5.784;2024-02-04T02:06:18;23.10;;;8.40;;
80625;SDS011;69982;51.758;5.784;2024-02-04T02:08:50;20.60;;;8.50;;
80625;SDS011;69982;51.758;5.784;2024-02-04T02:11:22;24.40;;;9.00;;
80625;SDS011;69982;51.758;5.784;2024-02-04T02:14:13;18.00;;;8.10;;
80625;SDS011;69982;51.758;5.784;2024-02-04T02:16:48;29.50;;;9.60;;
80625;SDS011;69982;51.758;5.784;2024-02-04T02:19:27;20.70;;;7.50;;
80625;SDS011;69982;51.758;5.784;2024-02-04T02:22:04;32.10;;;9.80;;
80625;SDS011;69982;51.758;5.784;2024-02-04T02:24:42;25.90;;;8.00;;
80625;SDS011;69982;51.758;5.784;2024-02-04T02:27:25;24.30;;;8.50;;
80625;SDS011;69982;51.758;5.784;2024-02-04T02:29:52;16.70;;;6.80;;
80625;SDS011;69982;51.758;5.784;2024-02-04T02:32:21;26.30;;;8.00;;
80625;SDS011;69982;51.758;5.784;2024-02-04T02:34:48;21.20;;;7.10;;
80625;SDS011;69982;51.758;5.784;2024-02-04T02:40:19;20.10;;;7.80;;
80625;SDS011;69982;51.758;5.784;2024-02-04T02:43:01;17.40;;;5.50;;
80625;SDS011;69982;51.758;5.784;2024-02-04T02:45:29;23.40;;;7.00;;
80625;SDS011;69982;51.758;5.784;2024-02-04T02:47:58;24.10;;;6.70;;
80625;SDS011;69982;51.758;5.784;2024-02-04T02:50:26;20.00;;;6.90;;
80625;SDS011;69982;51.758;5.784;2024-02-04T02:52:54;16.70;;;7.00;;
80625;SDS011;69982;51.758;5.784;2024-02-04T02:55:24;20.20;;;6.40;;
80625;SDS011;69982;51.758;5.784;2024-02-04T02:57:51;17.50;;;7.00;;
80625;SDS011;69982;51.758;5.784;2024-02-04T03:03:13;19.20;;;6.00;;
80625;SDS011;69982;51.758;5.784;2024-02-04T03:05:41;18.10;;;6.80;;
80625;SDS011;69982;51.758;5.784;2024-02-04T03:08:22;21.60;;;6.30;;
80625;SDS011;69982;51.758;5.784;2024-02-04T03:13:37;25.80;;;8.00;;
80625;SDS011;69982;51.758;5.784;2024-02-04T03:16:15;21.60;;;8.00;;
80625;SDS011;69982;51.758;5.784;2024-02-04T03:18:49;19.40;;;6.20;;
80625;SDS011;69982;51.758;5.784;2024-02-04T03:21:23;17.40;;;7.80;;
80625;SDS011;69982;51.758;5.784;2024-02-04T03:23:50;21.30;;;7.30;;
80625;SDS011;69982;51.758;5.784;2024-02-04T03:26:22;14.30;;;6.20;;
80625;SDS011;69982;51.758;5.784;2024-02-04T03:29:10;12.20;;;5.70;;
80625;SDS011;69982;51.758;5.784;2024-02-04T03:31:37;19.60;;;6.50;;
80625;SDS011;69982;51.758;5.784;2024-02-04T03:34:10;22.40;;;7.00;;
80625;SDS011;69982;51.758;5.784;2024-02-04T03:37:09;15.30;;;5.40;;
80625;SDS011;69982;51.758;5.784;2024-02-04T03:39:48;17.30;;;7.20;;
80625;SDS011;69982;51.758;5.784;2024-02-04T03:42:26;21.70;;;7.40;;
80625;SDS011;69982;51.758;5.784;2024-02-04T03:45:00;20.40;;;7.20;;
80625;SDS011;69982;51.758;5.784;2024-02-04T03:47:33;22.90;;;6.90;;
80625;SDS011;69982;51.758;5.784;2024-02-04T03:50:02;22.40;;;6.70;;
80625;SDS011;69982;51.758;5.784;2024-02-04T03:52:52;18.70;;;5.60;;
80625;SDS011;69982;51.758;5.784;2024-02-04T03:55:30;20.60;;;7.30;;
80625;SDS011;69982;51.758;5.784;2024-02-04T03:58:01;22.90;;;6.20;;
80625;SDS011;69982;51.758;5.784;2024-02-04T04:00:35;18.70;;;5.80;;
80625;SDS011;69982;51.758;5.784;2024-02-04T04:03:31;20.30;;;6.40;;
80625;SDS011;69982;51.758;5.784;2024-02-04T04:05:58;18.30;;;6.30;;
80625;SDS011;69982;51.758;5.784;2024-02-04T04:08:25;18.80;;;6.20;;
80625;SDS011;69982;51.758;5.784;2024-02-04T04:10:52;23.90;;;7.00;;
80625;SDS011;69982;51.758;5.784;2024-02-04T04:13:22;19.00;;;5.80;;
80625;SDS011;69982;51.758;5.784;2024-02-04T04:15:50;17.60;;;5.40;;
80625;SDS011;69982;51.758;5.784;2024-02-04T04:18:21;19.30;;;6.80;;
80625;SDS011;69982;51.758;5.784;2024-02-04T04:20:48;18.80;;;6.60;;
80625;SDS011;69982;51.758;5.784;2024-02-04T04:23:15;16.90;;;6.80;;
80625;SDS011;69982;51.758;5.784;2024-02-04T04:26:03;21.00;;;6.70;;
80625;SDS011;69982;51.758;5.784;2024-02-04T04:28:30;17.50;;;6.20;;
80625;SDS011;69982;51.758;5.784;2024-02-04T04:30:57;15.70;;;5.90;;
80625;SDS011;69982;51.758;5.784;2024-02-04T04:33:28;18.40;;;5.00;;
80625;SDS011;69982;51.758;5.784;2024-02-04T04:36:10;17.30;;;6.20;;
80625;SDS011;69982;51.758;5.784;2024-02-04T04:38:37;16.20;;;6.00;;
80625;SDS011;69982;51.758;5.784;2024-02-04T04:41:04;16.40;;;5.10;;
80625;SDS011;69982;51.758;5.784;2024-02-04T04:43:41;17.00;;;6.50;;
80625;SDS011;69982;51.758;5.784;2024-02-04T04:46:09;18.00;;;5.10;;
80625;SDS011;69982;51.758;5.784;2024-02-04T04:51:36;16.60;;;5.40;;
80625;SDS011;69982;51.758;5.784;2024-02-04T04:57:36;20.60;;;5.50;;
80625;SDS011;69982;51.758;5.784;2024-02-04T05:00:34;11.90;;;5.10;;
80625;SDS011;69982;51.758;5.784;2024-02-04T05:10:26;18.00;;;4.30;;
80625;SDS011;69982;51.758;5.784;2024-02-04T05:12:59;14.20;;;4.60;;
80625;SDS011;69982;51.758;5.784;2024-02-04T05:15:32;15.10;;;5.10;;
80625;SDS011;69982;51.758;5.784;2024-02-04T05:18:02;15.80;;;5.30;;
80625;SDS011;69982;51.758;5.784;2024-02-04T05:20:33;10.40;;;4.70;;
80625;SDS011;69982;51.758;5.784;2024-02-04T05:23:03;14.70;;;4.70;;
80625;SDS011;69982;51.758;5.784;2024-02-04T05:25:49;15.20;;;5.50;;
80625;SDS011;69982;51.758;5.784;2024-02-04T05:28:17;19.90;;;6.30;;
80625;SDS011;69982;51.758;5.784;2024-02-04T05:31:21;17.20;;;5.20;;
80625;SDS011;69982;51.758;5.784;2024-02-04T05:34:04;11.40;;;4.20;;
80625;SDS011;69982;51.758;5.784;2024-02-04T05:36:53;15.40;;;5.00;;
80625;SDS011;69982;51.758;5.784;2024-02-04T05:39:23;14.20;;;4.00;;
80625;SDS011;69982;51.758;5.784;2024-02-04T05:41:54;11.10;;;4.70;;
80625;SDS011;69982;51.758;5.784;2024-02-04T05:44:52;15.00;;;4.00;;
80625;SDS011;69982;51.758;5.784;2024-02-04T05:47:57;10.70;;;4.10;;
80625;SDS011;69982;51.758;5.784;2024-02-04T05:51:01;13.80;;;3.80;;
80625;SDS011;69982;51.758;5.784;2024-02-04T05:57:12;10.70;;;4.40;;
80625;SDS011;69982;51.758;5.784;2024-02-04T05:59:45;14.40;;;5.00;;
80625;SDS011;69982;51.758;5.784;2024-02-04T06:02:38;9.70;;;3.90;;
80625;SDS011;69982;51.758;5.784;2024-02-04T06:05:06;10.80;;;3.80;;
80625;SDS011;69982;51.758;5.784;2024-02-04T06:07:55;13.60;;;5.00;;
80625;SDS011;69982;51.758;5.784;2024-02-04T06:10:34;13.10;;;4.20;;
80625;SDS011;69982;51.758;5.784;2024-02-04T06:13:19;8.80;;;3.70;;
80625;SDS011;69982;51.758;5.784;2024-02-04T06:16:16;11.90;;;3.80;;
80625;SDS011;69982;51.758;5.784;2024-02-04T06:25:25;11.20;;;3.60;;
80625;SDS011;69982;51.758;5.784;2024-02-04T06:27:53;13.00;;;5.00;;
80625;SDS011;69982;51.758;5.784;2024-02-04T06:30:21;7.50;;;3.70;;
80625;SDS011;69982;51.758;5.784;2024-02-04T06:51:24;13.90;;;4.50;;
80625;SDS011;69982;51.758;5.784;2024-02-04T06:54:15;9.50;;;4.00;;
80625;SDS011;69982;51.758;5.784;2024-02-04T06:57:28;11.50;;;3.40;;
80625;SDS011;69982;51.758;5.784;2024-02-04T07:09:48;7.90;;;3.20;;
80625;SDS011;69982;51.758;5.784;2024-02-04T07:16:33;7.90;;;2.80;;
80625;SDS011;69982;51.758;5.784;2024-02-04T07:20:02;5.30;;;2.50;;
80625;SDS011;69982;51.758;5.784;2024-02-04T07:22:30;9.40;;;3.50;;
80625;SDS011;69982;51.758;5.784;2024-02-04T07:24:59;7.90;;;3.50;;
80625;SDS011;69982;51.758;5.784;2024-02-04T07:27:26;7.30;;;2.80;;
80625;SDS011;69982;51.758;5.784;2024-02-04T07:29:58;7.50;;;3.00;;
80625;SDS011;69982;51.758;5.784;2024-02-04T07:32:25;9.80;;;3.50;;
80625;SDS011;69982;51.758;5.784;2024-02-04T07:34:55;7.70;;;3.30;;
80625;SDS011;69982;51.758;5.784;2024-02-04T07:37:22;8.60;;;3.00;;
80625;SDS011;69982;51.758;5.784;2024-02-04T07:39:49;7.50;;;2.90;;
80625;SDS011;69982;51.758;5.784;2024-02-04T07:42:19;8.20;;;3.40;;
80625;SDS011;69982;51.758;5.784;2024-02-04T07:44:50;7.70;;;2.90;;
80625;SDS011;69982;51.758;5.784;2024-02-04T07:47:19;7.90;;;2.70;;
80625;SDS011;69982;51.758;5.784;2024-02-04T07:49:52;6.20;;;2.50;;
80625;SDS011;69982;51.758;5.784;2024-02-04T07:52:19;6.20;;;2.50;;
80625;SDS011;69982;51.758;5.784;2024-02-04T07:55:02;4.40;;;2.10;;
80625;SDS011;69982;51.758;5.784;2024-02-04T07:57:31;5.60;;;1.80;;
80625;SDS011;69982;51.758;5.784;2024-02-04T07:59:58;5.50;;;2.10;;
80625;SDS011;69982;51.758;5.784;2024-02-04T08:02:28;5.70;;;1.70;;
80625;SDS011;69982;51.758;5.784;2024-02-04T08:04:54;2.40;;;0.80;;
80625;SDS011;69982;51.758;5.784;2024-02-04T08:07:24;2.70;;;0.70;;
80625;SDS011;69982;51.758;5.784;2024-02-04T08:09:57;4.00;;;1.00;;
80625;SDS011;69982;51.758;5.784;2024-02-04T08:12:23;3.40;;;1.00;;
80625;SDS011;69982;51.758;5.784;2024-02-04T08:14:50;5.70;;;2.30;;
80625;SDS011;69982;51.758;5.784;2024-02-04T08:17:22;6.30;;;2.00;;
80625;SDS011;69982;51.758;5.784;2024-02-04T08:19:53;6.80;;;2.90;;
80625;SDS011;69982;51.758;5.784;2024-02-04T08:22:24;8.10;;;3.40;;
80625;SDS011;69982;51.758;5.784;2024-02-04T08:27:25;10.00;;;3.30;;
80625;SDS011;69982;51.758;5.784;2024-02-04T08:29:57;8.10;;;3.30;;
80625;SDS011;69982;51.758;5.784;2024-02-04T08:32:33;7.20;;;3.50;;
80625;SDS011;69982;51.758;5.784;2024-02-04T08:35:04;9.00;;;2.60;;
80625;SDS011;69982;51.758;5.784;2024-02-04T08:37:31;7.10;;;3.20;;
80625;SDS011;69982;51.758;5.784;2024-02-04T08:40:05;8.00;;;3.50;;
80625;SDS011;69982;51.758;5.784;2024-02-04T08:42:36;7.60;;;3.60;;
80625;SDS011;69982;51.758;5.784;2024-02-04T08:45:04;8.90;;;3.50;;
80625;SDS011;69982;51.758;5.784;2024-02-04T08:47:47;7.90;;;3.60;;
80625;SDS011;69982;51.758;5.784;2024-02-04T08:50:22;9.00;;;3.60;;
80625;SDS011;69982;51.758;5.784;2024-02-04T08:52:54;9.50;;;2.80;;
80625;SDS011;69982;51.758;5.784;2024-02-04T08:55:23;6.70;;;2.50;;
80625;SDS011;69982;51.758;5.784;2024-02-04T08:57:57;5.70;;;2.60;;
80625;SDS011;69982;51.758;5.784;2024-02-04T09:00:28;7.70;;;2.40;;
80625;SDS011;69982;51.758;5.784;2024-02-04T09:02:54;7.00;;;2.30;;
80625;SDS011;69982;51.758;5.784;2024-02-04T09:05:25;5.40;;;2.10;;
80625;SDS011;69982;51.758;5.784;2024-02-04T09:08:04;7.10;;;2.60;;
80625;SDS011;69982;51.758;5.784;2024-02-04T09:10:31;6.00;;;2.20;;
80625;SDS011;69982;51.758;5.784;2024-02-04T09:13:00;7.60;;;2.30;;
80625;SDS011;69982;51.758;5.784;2024-02-04T09:15:30;7.00;;;2.10;;
80625;SDS011;69982;51.758;5.784;2024-02-04T09:18:00;5.60;;;1.90;;
80625;SDS011;69982;51.758;5.784;2024-02-04T09:20:29;6.10;;;2.00;;
80625;SDS011;69982;51.758;5.784;2024-02-04T09:23:02;4.90;;;2.00;;
80625;SDS011;69982;51.758;5.784;2024-02-04T09:25:30;7.10;;;4.30;;
80625;SDS011;69982;51.758;5.784;2024-02-04T09:28:04;6.50;;;1.80;;
80625;SDS011;69982;51.758;5.784;2024-02-04T09:30:36;6.70;;;2.10;;
80625;SDS011;69982;51.758;5.784;2024-02-04T09:33:05;4.50;;;1.50;;
80625;SDS011;69982;51.758;5.784;2024-02-04T09:35:49;6.70;;;2.20;;
80625;SDS011;69982;51.758;5.784;2024-02-04T09:39:01;4.90;;;1.30;;
80625;SDS011;69982;51.758;5.784;2024-02-04T09:41:28;4.60;;;1.20;;
80625;SDS011;69982;51.758;5.784;2024-02-04T09:44:06;4.90;;;1.30;;
80625;SDS011;69982;51.758;5.784;2024-02-04T09:46:38;3.80;;;1.30;;
80625;SDS011;69982;51.758;5.784;2024-02-04T09:49:05;2.80;;;1.10;;
80625;SDS011;69982;51.758;5.784;2024-02-04T09:51:37;7.10;;;1.60;;
80625;SDS011;69982;51.758;5.784;2024-02-04T09:54:09;5.80;;;1.70;;
80625;SDS011;69982;51.758;5.784;2024-02-04T09:56:40;4.20;;;1.30;;
80625;SDS011;69982;51.758;5.784;2024-02-04T09:59:11;5.50;;;1.40;;
80625;SDS011;69982;51.758;5.784;2024-02-04T10:01:38;4.60;;;1.30;;
80625;SDS011;69982;51.758;5.784;2024-02-04T10:04:06;6.50;;;1.40;;
80625;SDS011;69982;51.758;5.784;2024-02-04T10:06:33;5.60;;;1.40;;
80625;SDS011;69982;51.758;5.784;2024-02-04T10:09:10;5.40;;;1.50;;
80625;SDS011;69982;51.758;5.784;2024-02-04T10:11:44;4.80;;;1.10;;
80625;SDS011;69982;51.758;5.784;2024-02-04T10:14:13;6.00;;;1.40;;
80625;SDS011;69982;51.758;5.784;2024-02-04T10:16:51;6.80;;;1.20;;
80625;SDS011;69982;51.758;5.784;2024-02-04T10:19:19;9.50;;;1.50;;
80625;SDS011;69982;51.758;5.784;2024-02-04T10:24:36;4.30;;;1.00;;
80625;SDS011;69982;51.758;5.784;2024-02-04T10:27:09;6.50;;;1.50;;
80625;SDS011;69982;51.758;5.784;2024-02-04T10:29:59;5.50;;;1.10;;
80625;SDS011;69982;51.758;5.784;2024-02-04T10:32:26;6.50;;;1.00;;
80625;SDS011;69982;51.758;5.784;2024-02-04T10:37:33;3.00;;;0.80;;
80625;SDS011;69982;51.758;5.784;2024-02-04T10:40:00;2.90;;;0.70;;
80625;SDS011;69982;51.758;5.784;2024-02-04T10:42:34;1.90;;;0.60;;
80625;SDS011;69982;51.758;5.784;2024-02-04T10:45:03;3.80;;;0.90;;
80625;SDS011;69982;51.758;5.784;2024-02-04T10:47:43;3.00;;;0.70;;
80625;SDS011;69982;51.758;5.784;2024-02-04T10:50:24;4.20;;;0.80;;
80625;SDS011;69982;51.758;5.784;2024-02-04T10:53:13;2.20;;;0.60;;
80625;SDS011;69982;51.758;5.784;2024-02-04T10:55:41;3.60;;;0.60;;
80625;SDS011;69982;51.758;5.784;2024-02-04T10:58:21;3.10;;;0.70;;
80625;SDS011;69982;51.758;5.784;2024-02-04T11:00:49;3.00;;;0.90;;
80625;SDS011;69982;51.758;5.784;2024-02-04T11:03:16;4.10;;;1.70;;
80625;SDS011;69982;51.758;5.784;2024-02-04T11:05:53;2.00;;;0.50;;
80625;SDS011;69982;51.758;5.784;2024-02-04T11:08:26;4.90;;;0.70;;
80625;SDS011;69982;51.758;5.784;2024-02-04T11:10:53;4.30;;;0.80;;
80625;SDS011;69982;51.758;5.784;2024-02-04T11:13:20;2.60;;;0.90;;
80625;SDS011;69982;51.758;5.784;2024-02-04T11:15:51;2.20;;;0.90;;
80625;SDS011;69982;51.758;5.784;2024-02-04T11:21:17;4.00;;;1.40;;
80625;SDS011;69982;51.758;5.784;2024-02-04T11:26:36;3.20;;;1.30;;
80625;SDS011;69982;51.758;5.784;2024-02-04T11:29:07;4.20;;;1.60;;
80625;SDS011;69982;51.758;5.784;2024-02-04T11:31:38;3.20;;;1.30;;
80625;SDS011;69982;51.758;5.784;2024-02-04T11:34:06;3.30;;;1.30;;
80625;SDS011;69982;51.758;5.784;2024-02-04T11:36:39;4.00;;;1.90;;
80625;SDS011;69982;51.758;5.784;2024-02-04T11:39:12;4.50;;;1.30;;
80625;SDS011;69982;51.758;5.784;2024-02-04T11:41:49;5.30;;;1.90;;
80625;SDS011;69982;51.758;5.784;2024-02-04T11:44:20;18.00;;;9.20;;
80625;SDS011;69982;51.758;5.784;2024-02-04T11:46:51;48.70;;;18.60;;
80625;SDS011;69982;51.758;5.784;2024-02-04T11:49:19;29.60;;;9.10;;
80625;SDS011;69982;51.758;5.784;2024-02-04T11:51:51;21.00;;;9.00;;
80625;SDS011;69982;51.758;5.784;2024-02-04T11:54:21;23.30;;;8.40;;
80625;SDS011;69982;51.758;5.784;2024-02-04T11:56:52;29.90;;;13.60;;
80625;SDS011;69982;51.758;5.784;2024-02-04T11:59:20;14.40;;;6.50;;
80625;SDS011;69982;51.758;5.784;2024-02-04T12:02:10;24.70;;;10.70;;
80625;SDS011;69982;51.758;5.784;2024-02-04T12:07:06;5.90;;;3.00;;
80625;SDS011;69982;51.758;5.784;2024-02-04T12:09:36;4.80;;;1.80;;
80625;SDS011;69982;51.758;5.784;2024-02-04T12:12:08;3.40;;;1.30;;
80625;SDS011;69982;51.758;5.784;2024-02-04T12:14:35;3.40;;;1.40;;
80625;SDS011;69982;51.758;5.784;2024-02-04T12:17:08;3.80;;;1.60;;
80625;SDS011;69982;51.758;5.784;2024-02-04T12:19:37;3.70;;;1.30;;
80625;SDS011;69982;51.758;5.784;2024-02-04T12:22:15;5.10;;;1.50;;
80625;SDS011;69982;51.758;5.784;2024-02-04T12:24:43;3.00;;;1.00;;
80625;SDS011;69982;51.758;5.784;2024-02-04T12:27:16;7.90;;;1.20;;
80625;SDS011;69982;51.758;5.784;2024-02-04T12:29:43;4.50;;;2.00;;
80625;SDS011;69982;51.758;5.784;2024-02-04T12:32:13;6.30;;;2.00;;
80625;SDS011;69982;51.758;5.784;2024-02-04T12:34:48;5.90;;;1.60;;
80625;SDS011;69982;51.758;5.784;2024-02-04T12:40:29;5.50;;;1.20;;
80625;SDS011;69982;51.758;5.784;2024-02-04T12:43:14;10.30;;;1.50;;
80625;SDS011;69982;51.758;5.784;2024-02-04T12:47:08;6.50;;;1.20;;
80625;SDS011;69982;51.758;5.784;2024-02-04T12:50:01;5.70;;;1.40;;
80625;SDS011;69982;51.758;5.784;2024-02-04T12:52:45;3.80;;;0.90;;
80625;SDS011;69982;51.758;5.784;2024-02-04T12:55:35;3.50;;;1.00;;
80625;SDS011;69982;51.758;5.784;2024-02-04T12:58:50;6.20;;;0.90;;
80625;SDS011;69982;51.758;5.784;2024-02-04T13:02:26;7.70;;;1.80;;
80625;SDS011;69982;51.758;5.784;2024-02-04T13:05:08;4.10;;;2.00;;
80625;SDS011;69982;51.758;5.784;2024-02-04T13:08:03;5.90;;;1.10;;
80625;SDS011;69982;51.758;5.784;2024-02-04T13:10:54;4.90;;;1.30;;
80625;SDS011;69982;51.758;5.784;2024-02-04T13:17:23;8.00;;;2.90;;
80625;SDS011;69982;51.758;5.784;2024-02-04T13:20:16;3.80;;;0.90;;
80625;SDS011;69982;51.758;5.784;2024-02-04T13:23:07;5.40;;;0.80;;
80625;SDS011;69982;51.758;5.784;2024-02-04T13:25:48;6.40;;;1.00;;
80625;SDS011;69982;51.758;5.784;2024-02-04T13:28:20;6.40;;;0.90;;
80625;SDS011;69982;51.758;5.784;2024-02-04T13:30:53;6.70;;;1.00;;
80625;SDS011;69982;51.758;5.784;2024-02-04T13:33:20;2.80;;;0.70;;
80625;SDS011;69982;51.758;5.784;2024-02-04T13:35:54;3.80;;;0.70;;
80625;SDS011;69982;51.758;5.784;2024-02-04T13:38:26;7.30;;;0.90;;
80625;SDS011;69982;51.758;5.784;2024-02-04T13:40:56;7.70;;;1.30;;
80625;SDS011;69982;51.758;5.784;2024-02-04T13:43:23;7.30;;;2.20;;
80625;SDS011;69982;51.758;5.784;2024-02-04T13:45:50;10.40;;;6.30;;
80625;SDS011;69982;51.758;5.784;2024-02-04T13:48:20;8.50;;;3.90;;
80625;SDS011;69982;51.758;5.784;2024-02-04T13:50:50;7.00;;;1.20;;
80625;SDS011;69982;51.758;5.784;2024-02-04T13:53:39;6.40;;;1.40;;
80625;SDS011;69982;51.758;5.784;2024-02-04T13:56:11;5.10;;;1.10;;
80625;SDS011;69982;51.758;5.784;2024-02-04T13:58:45;5.80;;;1.10;;
80625;SDS011;69982;51.758;5.784;2024-02-04T14:01:14;6.10;;;1.40;;
80625;SDS011;69982;51.758;5.784;2024-02-04T14:03:44;8.40;;;1.50;;
80625;SDS011;69982;51.758;5.784;2024-02-04T14:06:10;3.20;;;0.70;;
80625;SDS011;69982;51.758;5.784;2024-02-04T14:08:40;5.40;;;0.90;;
80625;SDS011;69982;51.758;5.784;2024-02-04T14:11:07;5.50;;;0.80;;
80625;SDS011;69982;51.758;5.784;2024-02-04T14:13:33;3.70;;;0.80;;
80625;SDS011;69982;51.758;5.784;2024-02-04T14:16:04;6.20;;;0.90;;
80625;SDS011;69982;51.758;5.784;2024-02-04T14:18:32;3.60;;;0.70;;
80625;SDS011;69982;51.758;5.784;2024-02-04T14:21:18;4.40;;;0.70;;
80625;SDS011;69982;51.758;5.784;2024-02-04T14:24:34;5.70;;;0.80;;
80625;SDS011;69982;51.758;5.784;2024-02-04T14:27:11;4.50;;;0.80;;
80625;SDS011;69982;51.758;5.784;2024-02-04T14:29:42;6.20;;;0.80;;
80625;SDS011;69982;51.758;5.784;2024-02-04T14:32:09;8.40;;;1.40;;
80625;SDS011;69982;51.758;5.784;2024-02-04T14:34:40;7.70;;;2.10;;
80625;SDS011;69982;51.758;5.784;2024-02-04T14:37:09;6.50;;;1.60;;
80625;SDS011;69982;51.758;5.784;2024-02-04T14:39:38;8.60;;;1.10;;
80625;SDS011;69982;51.758;5.784;2024-02-04T14:42:05;5.40;;;1.10;;
80625;SDS011;69982;51.758;5.784;2024-02-04T14:44:33;6.80;;;1.20;;
80625;SDS011;69982;51.758;5.784;2024-02-04T14:47:02;5.40;;;1.70;;
80625;SDS011;69982;51.758;5.784;2024-02-04T14:49:30;7.50;;;1.40;;
80625;SDS011;69982;51.758;5.784;2024-02-04T14:52:00;6.10;;;1.00;;
80625;SDS011;69982;51.758;5.784;2024-02-04T14:54:36;4.30;;;0.70;;
80625;SDS011;69982;51.758;5.784;2024-02-04T14:57:05;5.00;;;0.90;;
80625;SDS011;69982;51.758;5.784;2024-02-04T14:59:35;3.80;;;0.80;;
80625;SDS011;69982;51.758;5.784;2024-02-04T15:02:04;6.00;;;0.70;;
80625;SDS011;69982;51.758;5.784;2024-02-04T15:04:49;5.20;;;0.90;;
80625;SDS011;69982;51.758;5.784;2024-02-04T15:07:40;2.30;;;0.60;;
80625;SDS011;69982;51.758;5.784;2024-02-04T15:10:13;4.10;;;0.80;;
80625;SDS011;69982;51.758;5.784;2024-02-04T15:12:52;4.30;;;0.80;;
80625;SDS011;69982;51.758;5.784;2024-02-04T15:15:30;4.30;;;0.70;;
80625;SDS011;69982;51.758;5.784;2024-02-04T15:18:15;7.00;;;1.10;;
80625;SDS011;69982;51.758;5.784;2024-02-04T15:20:50;4.10;;;1.00;;
80625;SDS011;69982;51.758;5.784;2024-02-04T15:23:50;4.80;;;1.90;;
80625;SDS011;69982;51.758;5.784;2024-02-04T15:26:36;3.80;;;0.80;;
80625;SDS011;69982;51.758;5.784;2024-02-04T15:29:41;7.80;;;2.70;;
80625;SDS011;69982;51.758;5.784;2024-02-04T15:33:06;4.00;;;2.20;;
80625;SDS011;69982;51.758;5.784;2024-02-04T15:35:47;5.20;;;0.90;;
80625;SDS011;69982;51.758;5.784;2024-02-04T15:38:33;3.20;;;0.90;;
80625;SDS011;69982;51.758;5.784;2024-02-04T15:42:46;6.80;;;1.00;;
80625;SDS011;69982;51.758;5.784;2024-02-04T16:28:59;6.00;;;1.40;;
80625;SDS011;69982;51.758;5.784;2024-02-04T16:32:31;4.10;;;1.00;;
80625;SDS011;69982;51.758;5.784;2024-02-04T16:35:37;5.60;;;1.60;;
80625;SDS011;69982;51.758;5.784;2024-02-04T16:38:32;6.30;;;2.10;;
80625;SDS011;69982;51.758;5.784;2024-02-04T16:41:35;7.40;;;1.70;;
80625;SDS011;69982;51.758;5.784;2024-02-04T16:44:16;6.70;;;2.00;;
80625;SDS011;69982;51.758;5.784;2024-02-04T16:47:33;6.50;;;1.80;;
80625;SDS011;69982;51.758;5.784;2024-02-04T16:50:17;6.50;;;2.10;;
80625;SDS011;69982;51.758;5.784;2024-02-04T16:53:46;6.20;;;2.10;;
80625;SDS011;69982;51.758;5.784;2024-02-04T16:57:16;7.40;;;1.80;;
80625;SDS011;69982;51.758;5.784;2024-02-04T17:00:18;7.60;;;2.40;;
80625;SDS011;69982;51.758;5.784;2024-02-04T17:03:38;5.10;;;2.80;;
80625;SDS011;69982;51.758;5.784;2024-02-04T17:06:32;11.70;;;4.20;;
80625;SDS011;69982;51.758;5.784;2024-02-04T17:09:29;9.20;;;2.50;;
80625;SDS011;69982;51.758;5.784;2024-02-04T17:12:23;9.70;;;2.20;;
80625;SDS011;69982;51.758;5.784;2024-02-04T17:18:43;6.00;;;1.70;;
80625;SDS011;69982;51.758;5.784;2024-02-04T17:22:01;8.00;;;2.80;;
80625;SDS011;69982;51.758;5.784;2024-02-04T17:25:54;7.90;;;1.90;;
80625;SDS011;69982;51.758;5.784;2024-02-04T17:28:46;8.30;;;2.00;;
80625;SDS011;69982;51.758;5.784;2024-02-04T17:32:21;8.30;;;1.80;;
80625;SDS011;69982;51.758;5.784;2024-02-04T17:37:40;9.00;;;2.50;;
80625;SDS011;69982;51.758;5.784;2024-02-04T17:40:12;10.80;;;2.50;;
80625;SDS011;69982;51.758;5.784;2024-02-04T17:43:03;5.70;;;2.00;;
80625;SDS011;69982;51.758;5.784;2024-02-04T17:45:35;11.00;;;3.40;;
80625;SDS011;69982;51.758;5.784;2024-02-04T17:48:08;8.50;;;3.10;;
80625;SDS011;69982;51.758;5.784;2024-02-04T17:50:38;8.00;;;2.10;;
80625;SDS011;69982;51.758;5.784;2024-02-04T17:53:08;10.00;;;2.90;;
80625;SDS011;69982;51.758;5.784;2024-02-04T17:55:59;7.10;;;1.60;;
80625;SDS011;69982;51.758;5.784;2024-02-04T17:58:33;9.80;;;2.30;;
80625;SDS011;69982;51.758;5.784;2024-02-04T18:01:21;9.60;;;2.00;;
80625;SDS011;69982;51.758;5.784;2024-02-04T18:06:44;20.70;;;7.10;;